Time;durP1;ratioP1;P1;durP2;ratioP2;P2;SDS_P1;SDS_P2;PMS_P1;PMS_P2;Temp;Humidity;BMP_temperature;BMP_pressure;BME280_temperature;BME280_humidity;BME280_pressure;Samples;Min_cycle;Max_cycle;Signal;HPM_P1;HPM_P2
2022/02/19 00:00:27;;;;;;;21.40;20.05;;;8.90;61.20;;;;;;5072671;28;20558;-72
2022/02/19 00:02:54;;;;;;;23.13;21.60;;;9.00;61.10;;;;;;5072793;28;20206;-73
2022/02/19 00:05:22;;;;;;;22.38;20.98;;;9.00;61.40;;;;;;5072652;28;20222;-72
2022/02/19 00:07:49;;;;;;;21.60;20.20;;;9.00;61.70;;;;;;5072684;28;20199;-72
2022/02/19 00:10:16;;;;;;;22.83;20.85;;;9.00;61.50;;;;;;5072319;28;20259;-72
2022/02/19 00:12:43;;;;;;;21.85;20.50;;;8.90;62.20;;;;;;5072585;28;20709;-72
2022/02/19 00:15:11;;;;;;;22.77;21.27;;;8.90;62.70;;;;;;5072475;28;20223;-72
2022/02/19 00:17:38;;;;;;;24.08;21.88;;;8.90;62.40;;;;;;5072540;28;20287;-72
2022/02/19 00:20:07;;;;;;;21.77;20.52;;;8.90;62.00;;;;;;5072329;28;20715;-72
2022/02/19 00:22:35;;;;;;;22.10;20.40;;;8.90;61.50;;;;;;5072543;28;20713;-72
2022/02/19 00:25:03;;;;;;;24.13;22.10;;;8.90;61.70;;;;;;5072603;28;20596;-72
2022/02/19 00:27:30;;;;;;;21.30;20.10;;;8.90;60.70;;;;;;5072207;28;20235;-72
2022/02/19 00:29:57;;;;;;;22.92;21.33;;;8.80;60.80;;;;;;5072071;28;20265;-72
2022/02/19 00:32:25;;;;;;;23.40;21.17;;;8.80;60.00;;;;;;5072271;28;20618;-72
2022/02/19 00:34:52;;;;;;;22.92;21.15;;;8.80;59.90;;;;;;5072382;28;20192;-72
2022/02/19 00:37:19;;;;;;;22.08;20.48;;;8.70;59.80;;;;;;5072552;28;20203;-72
2022/02/19 00:39:46;;;;;;;22.10;20.70;;;8.80;60.10;;;;;;5071502;28;20198;-72
2022/02/19 00:42:13;;;;;;;21.60;20.17;;;8.80;60.20;;;;;;5072296;28;20222;-72
2022/02/19 00:44:40;;;;;;;20.67;19.27;;;8.80;60.00;;;;;;5071955;28;20662;-72
2022/02/19 00:47:08;;;;;;;22.05;20.65;;;8.80;60.10;;;;;;5072277;28;20557;-72
2022/02/19 00:49:36;;;;;;;22.17;20.75;;;8.80;59.70;;;;;;5072203;28;20565;-72
2022/02/19 00:52:03;;;;;;;22.20;20.55;;;8.80;59.80;;;;;;5072199;28;20305;-72
2022/02/19 00:54:30;;;;;;;21.15;19.92;;;8.80;60.10;;;;;;5072101;28;20689;-72
2022/02/19 00:56:57;;;;;;;23.20;21.02;;;8.80;60.20;;;;;;5072128;28;20290;-72
2022/02/19 00:59:24;;;;;;;21.90;20.35;;;8.70;60.10;;;;;;5071962;28;20591;-72
2022/02/19 01:01:51;;;;;;;21.60;19.95;;;8.70;59.90;;;;;;5072166;28;20312;-73
2022/02/19 01:04:17;;;;;;;22.55;20.38;;;8.70;59.90;;;;;;5071989;28;20643;-72
2022/02/19 01:06:46;;;;;;;21.98;20.48;;;8.70;58.80;;;;;;5071971;28;20196;-72
2022/02/19 01:09:13;;;;;;;22.45;20.70;;;8.70;59.10;;;;;;5071814;28;20226;-72
2022/02/19 01:11:40;;;;;;;22.73;20.80;;;8.70;59.20;;;;;;5071965;28;20224;-72
2022/02/19 01:14:07;;;;;;;22.42;20.67;;;8.70;59.00;;;;;;5071874;28;20192;-72
2022/02/19 01:16:34;;;;;;;21.55;20.25;;;8.70;58.90;;;;;;5072042;28;20200;-72
2022/02/19 01:19:01;;;;;;;21.95;20.50;;;8.70;59.10;;;;;;5071839;28;20234;-72
2022/02/19 01:21:28;;;;;;;22.30;20.45;;;8.70;59.10;;;;;;5071890;28;20216;-73
2022/02/19 01:23:56;;;;;;;22.35;20.73;;;8.80;58.50;;;;;;5071901;28;20203;-73
2022/02/19 01:26:23;;;;;;;22.30;20.60;;;8.70;59.00;;;;;;5071563;28;20295;-72
2022/02/19 01:28:50;;;;;;;20.65;19.35;;;8.70;58.60;;;;;;5072034;28;20200;-72
2022/02/19 01:31:17;;;;;;;21.38;19.80;;;8.70;58.80;;;;;;5071390;28;20259;-72
2022/02/19 01:33:44;;;;;;;21.70;20.20;;;8.70;58.30;;;;;;5071836;28;20517;-72
2022/02/19 01:36:11;;;;;;;23.27;21.23;;;8.70;58.60;;;;;;5071798;28;20390;-72
2022/02/19 01:38:38;;;;;;;21.98;20.45;;;8.80;58.10;;;;;;5071605;28;20205;-72
2022/02/19 01:41:06;;;;;;;22.73;20.88;;;8.70;57.70;;;;;;5071359;28;20770;-72
2022/02/19 01:43:33;;;;;;;22.70;20.90;;;8.70;58.30;;;;;;5071772;28;20287;-72
2022/02/19 01:46:00;;;;;;;22.08;20.60;;;8.80;58.20;;;;;;5071591;28;20211;-72
2022/02/19 01:48:27;;;;;;;22.08;20.67;;;8.80;57.90;;;;;;5071667;28;20195;-72
2022/02/19 01:50:54;;;;;;;23.40;21.45;;;8.70;57.50;;;;;;5073140;28;20243;-72
2022/02/19 01:53:22;;;;;;;22.55;20.45;;;8.60;57.60;;;;;;5075274;28;20196;-72
2022/02/19 01:55:49;;;;;;;22.33;20.50;;;8.50;56.10;;;;;;5075065;28;20203;-72
2022/02/19 01:58:17;;;;;;;22.60;21.20;;;8.50;57.10;;;;;;5075083;28;20290;-72
2022/02/19 02:00:44;;;;;;;21.27;20.05;;;8.60;57.40;;;;;;5074827;28;20216;-72
2022/02/19 02:03:12;;;;;;;22.10;20.80;;;8.50;57.10;;;;;;5075072;28;20208;-72
2022/02/19 02:05:39;;;;;;;22.30;20.63;;;8.50;57.10;;;;;;5074846;28;20536;-72
2022/02/19 02:08:09;;;;;;;21.30;20.10;;;8.50;57.00;;;;;;5074852;28;20199;-72
2022/02/19 02:10:36;;;;;;;22.88;21.02;;;8.50;56.80;;;;;;5074604;28;20281;-72
2022/02/19 02:13:04;;;;;;;23.20;21.50;;;8.50;57.30;;;;;;5074844;28;20204;-72
2022/02/19 02:15:34;;;;;;;22.13;20.85;;;8.50;57.00;;;;;;5074914;28;20344;-72
2022/02/19 02:18:01;;;;;;;21.52;20.27;;;8.40;56.40;;;;;;5074833;28;20720;-72
2022/02/19 02:20:28;;;;;;;21.52;20.23;;;8.40;56.80;;;;;;5074322;28;20568;-72
2022/02/19 02:22:57;;;;;;;21.50;20.40;;;8.40;56.90;;;;;;5074599;28;20200;-72
2022/02/19 02:25:26;;;;;;;22.00;20.25;;;8.50;56.80;;;;;;5074373;28;20242;-72
2022/02/19 02:27:54;;;;;;;22.00;20.60;;;8.40;57.10;;;;;;5074465;28;20203;-72
2022/02/19 02:30:21;;;;;;;23.35;21.30;;;8.40;56.30;;;;;;5074160;28;20226;-72
2022/02/19 02:32:48;;;;;;;22.98;21.27;;;8.40;56.60;;;;;;5074320;28;20654;-72
2022/02/19 02:35:16;;;;;;;22.13;20.90;;;8.40;56.30;;;;;;5074367;28;20192;-72
2022/02/19 02:37:42;;;;;;;22.85;21.15;;;8.30;56.10;;;;;;5074340;28;20658;-72
2022/02/19 02:40:12;;;;;;;21.85;20.38;;;8.20;56.30;;;;;;5074046;28;20556;-72
2022/02/19 02:42:39;;;;;;;22.55;20.95;;;8.20;57.00;;;;;;5074318;28;20221;-72
2022/02/19 02:45:07;;;;;;;22.33;20.92;;;8.20;56.90;;;;;;5074158;28;20208;-72
2022/02/19 02:47:35;;;;;;;22.20;20.73;;;8.20;56.80;;;;;;5074156;28;20284;-72
2022/02/19 02:50:03;;;;;;;22.63;21.17;;;8.20;56.20;;;;;;5073836;28;20238;-72
2022/02/19 02:52:30;;;;;;;21.90;20.35;;;8.10;56.50;;;;;;5074114;28;20222;-72
2022/02/19 02:54:57;;;;;;;23.15;21.38;;;8.10;57.00;;;;;;5073871;28;20222;-72
2022/02/19 02:57:26;;;;;;;22.20;20.60;;;8.10;56.60;;;;;;5074022;28;20204;-72
2022/02/19 02:59:52;;;;;;;22.40;20.80;;;8.10;56.80;;;;;;5073737;28;20188;-72
2022/02/19 03:02:22;;;;;;;22.35;21.05;;;8.00;56.90;;;;;;5073226;28;20223;-72
2022/02/19 03:04:49;;;;;;;24.08;22.02;;;8.00;56.90;;;;;;5073761;28;20205;-72
2022/02/19 03:07:16;;;;;;;23.42;21.35;;;8.10;57.10;;;;;;5073768;28;20200;-72
2022/02/19 03:09:43;;;;;;;23.45;21.65;;;8.10;57.30;;;;;;5073388;28;20736;-72
2022/02/19 03:12:11;;;;;;;22.55;20.88;;;8.10;57.20;;;;;;5073766;28;20307;-72
2022/02/19 03:14:39;;;;;;;21.73;20.30;;;8.00;57.60;;;;;;5073517;28;20203;-72
2022/02/19 03:17:07;;;;;;;22.50;20.83;;;7.90;57.40;;;;;;5073500;28;20204;-72
2022/02/19 03:19:34;;;;;;;22.20;20.48;;;7.90;57.60;;;;;;5073330;28;20259;-72
2022/02/19 03:22:01;;;;;;;23.10;21.17;;;7.90;57.80;;;;;;5073359;28;20656;-72
2022/02/19 03:24:28;;;;;;;21.85;20.52;;;7.80;57.40;;;;;;5073468;28;20282;-72
2022/02/19 03:26:55;;;;;;;21.40;20.23;;;7.80;58.00;;;;;;5073077;28;20505;-72
2022/02/19 03:29:21;;;;;;;21.77;20.38;;;7.80;57.20;;;;;;5073100;28;20204;-72
2022/02/19 03:31:50;;;;;;;22.50;20.92;;;7.80;57.20;;;;;;5073048;28;20304;-72
2022/02/19 03:34:17;;;;;;;23.33;21.58;;;7.80;57.50;;;;;;5073128;28;20284;-72
2022/02/19 03:36:44;;;;;;;22.80;21.10;;;7.80;57.50;;;;;;5073304;28;20672;-72
2022/02/19 03:39:11;;;;;;;22.73;21.13;;;7.80;57.60;;;;;;5072870;28;20283;-72
2022/02/19 03:41:38;;;;;;;21.85;20.27;;;7.70;57.90;;;;;;5073025;28;20222;-72
2022/02/19 03:44:05;;;;;;;21.65;20.30;;;7.80;57.80;;;;;;5073037;28;20667;-72
2022/02/19 03:46:32;;;;;;;22.75;21.20;;;7.70;57.30;;;;;;5072912;28;20211;-72
2022/02/19 03:49:01;;;;;;;23.55;21.48;;;7.70;57.80;;;;;;5072991;28;20246;-72
2022/02/19 03:51:27;;;;;;;21.77;19.85;;;7.70;57.90;;;;;;5080920;22;20382;-72
2022/02/19 03:53:54;;;;;;;21.77;20.45;;;7.60;58.30;;;;;;5073857;28;20230;-72
2022/02/19 03:56:21;;;;;;;22.27;20.75;;;7.60;58.80;;;;;;5073447;28;20231;-72
2022/02/19 03:58:48;;;;;;;22.70;21.15;;;7.60;58.60;;;;;;5072866;28;20198;-72
2022/02/19 04:01:16;;;;;;;23.23;21.48;;;7.60;58.80;;;;;;5072564;28;20216;-72
2022/02/19 04:03:43;;;;;;;23.08;21.17;;;7.60;59.00;;;;;;5072842;28;20282;-72
2022/02/19 04:06:12;;;;;;;23.33;21.38;;;7.60;58.70;;;;;;5072731;28;20198;-72
2022/02/19 04:08:39;;;;;;;22.40;20.80;;;7.40;58.80;;;;;;5072678;28;20211;-72
2022/02/19 04:11:06;;;;;;;23.55;20.55;;;7.30;59.20;;;;;;5072275;28;20252;-72
2022/02/19 04:13:33;;;;;;;22.25;20.45;;;7.40;59.40;;;;;;5071990;28;20286;-72
2022/02/19 04:16:00;;;;;;;22.55;20.50;;;7.40;58.90;;;;;;5072534;28;20230;-72
2022/02/19 04:18:28;;;;;;;22.30;20.70;;;7.40;59.00;;;;;;5072645;28;20234;-72
2022/02/19 04:20:55;;;;;;;21.65;20.35;;;7.20;59.30;;;;;;5072448;28;20219;-72
2022/02/19 04:23:23;;;;;;;21.77;20.15;;;7.20;58.00;;;;;;5072322;28;20192;-72
2022/02/19 04:25:50;;;;;;;22.63;20.60;;;7.20;58.80;;;;;;5072372;28;20724;-72
2022/02/19 04:28:20;;;;;;;22.02;20.48;;;7.20;58.70;;;;;;5072431;28;20557;-72
2022/02/19 04:30:47;;;;;;;22.52;21.02;;;7.20;58.40;;;;;;5071988;28;20226;-72
2022/02/19 04:33:14;;;;;;;21.65;20.25;;;7.20;57.50;;;;;;5072473;28;20427;-72
2022/02/19 04:35:41;;;;;;;23.08;21.33;;;7.10;58.00;;;;;;5072243;28;20264;-72
2022/02/19 04:38:08;;;;;;;22.17;20.67;;;7.10;58.20;;;;;;5072276;28;20199;-72
2022/02/19 04:40:36;;;;;;;22.77;20.65;;;7.10;58.40;;;;;;5072081;28;20250;-72
2022/02/19 04:43:03;;;;;;;22.50;20.80;;;7.00;58.10;;;;;;5072333;28;20199;-72
2022/02/19 04:45:31;;;;;;;22.38;20.75;;;7.10;58.20;;;;;;5072223;28;20203;-72
2022/02/19 04:47:58;;;;;;;22.38;20.98;;;7.00;58.10;;;;;;5072130;28;20286;-72
2022/02/19 04:50:25;;;;;;;21.52;20.05;;;6.90;58.00;;;;;;5071865;28;20576;-72
2022/02/19 04:52:52;;;;;;;21.10;19.90;;;6.90;58.10;;;;;;5072206;28;20241;-72
2022/02/19 04:55:19;;;;;;;22.23;20.58;;;6.80;59.10;;;;;;5072370;28;20264;-72
2022/02/19 04:57:47;;;;;;;21.30;19.75;;;6.90;59.20;;;;;;5072100;28;20723;-72
2022/02/19 05:00:17;;;;;;;20.95;19.65;;;6.90;59.20;;;;;;5071914;28;20204;-72
2022/02/19 05:02:44;;;;;;;22.15;20.55;;;6.90;58.40;;;;;;5072046;28;20206;-72
2022/02/19 05:05:11;;;;;;;22.52;20.60;;;6.80;58.80;;;;;;5071928;28;20678;-72
2022/02/19 05:07:39;;;;;;;23.70;22.00;;;6.70;58.80;;;;;;5071976;28;20674;-72
2022/02/19 05:10:07;;;;;;;21.92;20.27;;;6.70;58.90;;;;;;5072017;28;20243;-72
2022/02/19 05:12:40;;;;;;;22.98;20.95;;;6.70;59.10;;;;;;5072011;28;20270;-72
2022/02/19 05:15:10;;;;;;;21.73;20.20;;;6.80;58.70;;;;;;5072311;28;20203;-72
2022/02/19 05:17:44;;;;;;;22.60;21.27;;;6.70;58.80;;;;;;5071845;28;20244;-72
2022/02/19 05:20:12;;;;;;;21.95;20.65;;;6.70;58.80;;;;;;5071872;28;20574;-72
2022/02/19 05:22:39;;;;;;;22.77;21.30;;;6.70;58.50;;;;;;5071958;28;20194;-72
2022/02/19 05:25:07;;;;;;;22.85;21.05;;;6.70;58.60;;;;;;5072529;28;20199;-72
2022/02/19 05:27:34;;;;;;;24.10;21.75;;;6.70;58.50;;;;;;5075347;28;20268;-72
2022/02/19 05:30:01;;;;;;;22.15;20.55;;;6.50;58.80;;;;;;5075315;28;20630;-72
2022/02/19 05:32:29;;;;;;;23.05;21.65;;;6.60;58.90;;;;;;5075747;28;20298;-72
2022/02/19 05:34:56;;;;;;;22.25;20.60;;;6.70;59.10;;;;;;5075673;28;20203;-72
2022/02/19 05:37:23;;;;;;;23.52;21.85;;;6.60;58.80;;;;;;5075531;28;20292;-72
2022/02/19 05:39:50;;;;;;;22.83;21.33;;;6.60;58.90;;;;;;5075420;28;20214;-72
2022/02/19 05:42:17;;;;;;;23.98;21.67;;;6.60;58.90;;;;;;5075425;28;20261;-72
2022/02/19 05:44:44;;;;;;;23.23;21.08;;;6.60;59.20;;;;;;5075342;28;20196;-72
2022/02/19 05:47:11;;;;;;;23.15;21.27;;;6.60;59.10;;;;;;5075341;28;20250;-72
2022/02/19 05:49:39;;;;;;;22.75;20.92;;;6.60;59.20;;;;;;5075011;28;20758;-72
2022/02/19 05:52:07;;;;;;;23.10;21.05;;;6.50;59.10;;;;;;5074956;28;20227;-72
2022/02/19 05:54:33;;;;;;;22.48;20.95;;;6.50;59.60;;;;;;5075223;28;20202;-72
2022/02/19 05:57:00;;;;;;;21.88;20.35;;;6.60;59.70;;;;;;5075084;28;20201;-72
2022/02/19 05:59:27;;;;;;;23.27;21.45;;;6.50;60.00;;;;;;5074937;28;20195;-72
2022/02/19 06:01:54;;;;;;;22.95;21.30;;;6.40;60.10;;;;;;5074945;28;20310;-72
2022/02/19 06:04:22;;;;;;;24.80;22.90;;;6.40;60.10;;;;;;5075015;28;20555;-72
2022/02/19 06:06:50;;;;;;;22.75;20.65;;;6.40;60.20;;;;;;5074976;28;20252;-72
2022/02/19 06:09:17;;;;;;;22.40;20.90;;;6.40;60.20;;;;;;5074783;28;20664;-72
2022/02/19 06:11:44;;;;;;;22.75;21.05;;;6.30;60.30;;;;;;5074776;28;20229;-72
2022/02/19 06:14:11;;;;;;;24.30;22.75;;;6.30;60.60;;;;;;5074827;28;20205;-72
2022/02/19 06:16:38;;;;;;;23.20;21.25;;;6.30;60.50;;;;;;5074755;28;20574;-72
2022/02/19 06:19:05;;;;;;;21.73;20.10;;;6.30;60.60;;;;;;5074668;28;20210;-72
2022/02/19 06:21:32;;;;;;;23.05;21.55;;;6.20;60.30;;;;;;5074630;28;20579;-72
2022/02/19 06:24:00;;;;;;;22.70;21.20;;;6.10;60.80;;;;;;5074571;28;20287;-72
2022/02/19 06:26:27;;;;;;;22.27;20.90;;;6.10;60.60;;;;;;5074341;28;20286;-72
2022/02/19 06:28:54;;;;;;;23.45;21.30;;;6.10;60.90;;;;;;5074648;28;20298;-72
2022/02/19 06:31:21;;;;;;;22.80;21.20;;;6.00;60.90;;;;;;5074040;28;20249;-72
2022/02/19 06:33:48;;;;;;;25.67;23.40;;;6.00;61.50;;;;;;5074453;28;20229;-72
2022/02/19 06:36:15;;;;;;;22.42;20.95;;;5.90;61.00;;;;;;5074003;28;20202;-72
2022/02/19 06:38:42;;;;;;;25.55;23.55;;;5.90;61.10;;;;;;5073645;28;20230;-72
2022/02/19 06:41:11;;;;;;;24.35;22.63;;;5.90;61.50;;;;;;5074141;28;20309;-72
2022/02/19 06:43:38;;;;;;;22.30;20.67;;;6.00;60.90;;;;;;5074349;28;20282;-72
2022/02/19 06:46:05;;;;;;;25.27;23.52;;;6.00;62.50;;;;;;5074262;28;20221;-72
2022/02/19 06:48:32;;;;;;;25.58;23.88;;;6.10;61.40;;;;;;5074272;28;20289;-72
2022/02/19 06:50:59;;;;;;;23.35;21.55;;;6.10;61.10;;;;;;5073729;28;20219;-72
2022/02/19 06:53:27;;;;;;;23.55;21.65;;;6.10;61.30;;;;;;5073958;28;20211;-72
2022/02/19 06:55:54;;;;;;;23.52;21.38;;;6.00;61.10;;;;;;5074092;28;20199;-72
2022/02/19 06:58:22;;;;;;;24.38;22.77;;;6.10;61.20;;;;;;5073965;28;20198;-72
2022/02/19 07:00:52;;;;;;;28.20;26.02;;;6.10;61.30;;;;;;5073801;28;20774;-72
2022/02/19 07:03:19;;;;;;;22.40;20.80;;;6.10;61.40;;;;;;5073953;28;20210;-72
2022/02/19 07:05:51;;;;;;;22.50;20.60;;;6.20;61.40;;;;;;5073831;28;20200;-72
2022/02/19 07:08:19;;;;;;;23.40;21.70;;;6.20;61.30;;;;;;5073886;28;20620;-72
2022/02/19 07:10:46;;;;;;;23.15;21.65;;;6.10;61.10;;;;;;5073586;28;20230;-72
2022/02/19 07:13:13;;;;;;;22.63;20.70;;;6.00;61.30;;;;;;5073948;28;20211;-72
2022/02/19 07:15:41;;;;;;;23.50;21.65;;;6.00;61.70;;;;;;5073702;28;20195;-72
2022/02/19 07:18:08;;;;;;;23.75;21.80;;;6.10;61.50;;;;;;5073626;28;20238;-72
2022/02/19 07:20:37;;;;;;;23.05;21.30;;;6.10;60.90;;;;;;5073392;28;20314;-72
2022/02/19 07:23:04;;;;;;;23.60;22.02;;;6.10;60.70;;;;;;5073651;28;20202;-72
2022/02/19 07:25:31;;;;;;;22.80;21.40;;;6.20;60.80;;;;;;5073339;28;20198;-72
2022/02/19 07:27:58;;;;;;;22.30;20.75;;;6.30;60.50;;;;;;5073286;28;20286;-72
2022/02/19 07:30:25;;;;;;;23.17;21.42;;;6.30;60.40;;;;;;5073097;28;20199;-72
2022/02/19 07:32:54;;;;;;;24.02;21.90;;;6.20;60.20;;;;;;5073523;28;20218;-72
2022/02/19 07:35:22;;;;;;;23.15;21.45;;;6.20;60.50;;;;;;5073405;28;20207;-72
2022/02/19 07:37:49;;;;;;;22.67;20.85;;;6.30;62.20;;;;;;5073713;28;20303;-72
2022/02/19 07:40:16;;;;;;;22.42;20.73;;;6.40;61.20;;;;;;5072981;28;20206;-72
2022/02/19 07:42:43;;;;;;;22.63;21.00;;;6.60;60.10;;;;;;5073252;28;20556;-72
2022/02/19 07:45:10;;;;;;;22.80;21.30;;;6.60;59.90;;;;;;5073043;28;20616;-72
2022/02/19 07:47:37;;;;;;;24.13;21.90;;;6.60;59.90;;;;;;5072918;28;20199;-72
2022/02/19 07:58:22;;;;;;;21.88;20.52;;;7.20;58.80;;;;;;5073051;28;20614;-72
2022/02/19 08:00:51;;;;;;;24.42;22.80;;;7.20;58.60;;;;;;5072671;28;20262;-72
2022/02/19 08:03:20;;;;;;;23.02;21.02;;;7.20;58.40;;;;;;5072938;28;20544;-72
2022/02/19 08:05:49;;;;;;;22.48;21.02;;;7.30;58.80;;;;;;5073175;28;20259;-72
2022/02/19 08:08:25;;;;;;;23.38;21.77;;;7.40;58.40;;;;;;5072647;28;20234;-72
2022/02/19 08:10:52;;;;;;;22.88;21.38;;;7.50;58.30;;;;;;5072612;28;20299;-72
2022/02/19 08:13:21;;;;;;;23.15;21.17;;;7.50;58.00;;;;;;5072750;28;20251;-72
2022/02/19 08:15:50;;;;;;;24.58;22.48;;;7.40;58.50;;;;;;5072708;28;20207;-72
2022/02/19 08:18:20;;;;;;;23.25;21.75;;;7.50;58.40;;;;;;5072702;28;20622;-72
2022/02/19 08:20:51;;;;;;;22.40;20.80;;;7.50;58.20;;;;;;5072330;28;20303;-72
2022/02/19 08:23:19;;;;;;;24.48;22.75;;;7.50;58.50;;;;;;5072668;28;20203;-72
2022/02/19 08:25:47;;;;;;;23.85;21.80;;;7.40;58.10;;;;;;5072376;28;20203;-72
2022/02/19 08:28:14;;;;;;;22.42;20.80;;;7.40;59.30;;;;;;5072547;28;20236;-72
2022/02/19 08:30:44;;;;;;;22.95;21.27;;;7.50;58.40;;;;;;5072235;28;20780;-72
2022/02/19 08:33:12;;;;;;;22.00;20.80;;;7.50;58.80;;;;;;5072005;28;20317;-72
2022/02/19 08:35:41;;;;;;;22.65;20.65;;;7.40;58.50;;;;;;5072227;28;20197;-72
2022/02/19 08:38:10;;;;;;;22.50;20.80;;;7.40;59.00;;;;;;5072372;28;20291;-72
2022/02/19 08:40:37;;;;;;;22.60;21.20;;;7.30;58.40;;;;;;5072026;28;20273;-72
2022/02/19 08:43:04;;;;;;;22.30;20.45;;;7.30;59.00;;;;;;5072312;28;20279;-72
2022/02/19 08:45:31;;;;;;;23.23;21.48;;;7.30;59.00;;;;;;5072464;28;20239;-72
2022/02/19 08:48:01;;;;;;;23.25;21.83;;;7.40;58.70;;;;;;5072247;28;20200;-72
2022/02/19 08:50:30;;;;;;;23.05;21.42;;;7.20;58.90;;;;;;5072302;28;20627;-72
2022/02/19 08:52:57;;;;;;;24.52;22.35;;;7.30;59.10;;;;;;5072103;28;20220;-72
2022/02/19 08:55:25;;;;;;;22.52;20.50;;;7.40;58.90;;;;;;5072169;28;20611;-72
2022/02/19 08:57:53;;;;;;;22.70;21.00;;;7.50;58.70;;;;;;5072264;28;20195;-72
2022/02/19 09:00:20;;;;;;;23.27;21.45;;;7.50;57.90;;;;;;5072948;28;20291;-72
2022/02/19 09:02:47;;;;;;;23.42;21.83;;;7.60;57.70;;;;;;5076219;28;20282;-72
2022/02/19 09:05:16;;;;;;;23.35;21.30;;;7.50;58.10;;;;;;5076170;28;20282;-72
2022/02/19 09:07:43;;;;;;;23.10;21.33;;;7.40;58.10;;;;;;5076146;28;20542;-72
2022/02/19 09:10:11;;;;;;;21.83;20.42;;;7.40;58.40;;;;;;5075884;28;20285;-72
2022/02/19 09:12:45;;;;;;;23.08;21.48;;;7.50;58.20;;;;;;5075996;28;20659;-72
2022/02/19 09:15:13;;;;;;;22.98;21.38;;;7.60;58.40;;;;;;5076025;28;20206;-72
2022/02/19 09:17:40;;;;;;;22.98;21.25;;;7.70;57.50;;;;;;5076069;28;20576;-72
2022/02/19 09:20:09;;;;;;;24.10;22.25;;;7.80;57.50;;;;;;5075787;28;20653;-72
2022/02/19 09:22:37;;;;;;;23.60;22.00;;;7.70;57.10;;;;;;5075898;28;20196;-72
2022/02/19 09:25:05;;;;;;;22.52;21.02;;;7.80;57.30;;;;;;5075728;28;20206;-72
2022/02/19 09:27:32;;;;;;;21.58;20.20;;;7.80;57.50;;;;;;5075360;28;20257;-72
2022/02/19 09:30:01;;;;;;;22.75;21.35;;;7.80;57.00;;;;;;5075484;28;20239;-72
2022/02/19 09:32:28;;;;;;;22.90;21.45;;;7.70;56.80;;;;;;5075414;28;20685;-72
2022/02/19 09:34:55;;;;;;;23.23;21.63;;;7.80;57.60;;;;;;5075680;28;20712;-72
2022/02/19 09:37:23;;;;;;;23.95;22.23;;;7.80;57.20;;;;;;5075798;28;20202;-72
2022/02/19 09:39:50;;;;;;;22.17;20.52;;;7.70;56.00;;;;;;5075300;28;20206;-72
2022/02/19 09:42:20;;;;;;;23.67;21.65;;;7.40;56.10;;;;;;5075499;28;20258;-72
2022/02/19 09:44:48;;;;;;;22.90;21.30;;;7.50;56.70;;;;;;5075337;28;20656;-72
2022/02/19 09:47:23;;;;;;;23.23;21.67;;;7.70;56.80;;;;;;5075336;28;20293;-72
2022/02/19 09:49:50;;;;;;;24.52;22.77;;;7.80;56.30;;;;;;5075229;28;20560;-72
2022/02/19 09:52:17;;;;;;;22.73;21.13;;;8.00;56.10;;;;;;5075020;28;20222;-72
2022/02/19 09:54:44;;;;;;;22.27;20.73;;;8.00;56.10;;;;;;5075170;28;20283;-72
2022/02/19 09:57:11;;;;;;;23.55;21.88;;;8.10;55.80;;;;;;5075274;28;20234;-72
2022/02/19 09:59:38;;;;;;;24.00;22.60;;;8.20;55.50;;;;;;5075048;28;20574;-72
2022/02/19 10:02:07;;;;;;;22.55;21.05;;;8.20;55.60;;;;;;5075256;28;20569;-72
2022/02/19 10:04:36;;;;;;;22.95;21.33;;;8.30;55.60;;;;;;5075317;28;20296;-72
2022/02/19 10:07:13;;;;;;;22.50;21.23;;;8.30;55.00;;;;;;5074889;28;20236;-72
2022/02/19 10:09:41;;;;;;;23.13;22.02;;;8.30;55.40;;;;;;5075006;28;20725;-72
2022/02/19 10:12:09;;;;;;;23.52;21.70;;;8.30;55.10;;;;;;5074804;28;20759;-72
2022/02/19 10:14:37;;;;;;;23.33;21.65;;;8.40;55.10;;;;;;5074984;28;20609;-72
2022/02/19 10:17:13;;;;;;;22.52;20.92;;;8.50;54.70;;;;;;5074883;28;20195;-72
2022/02/19 10:19:50;;;;;;;23.25;21.65;;;8.50;54.50;;;;;;5074547;28;20230;-72
2022/02/19 10:22:19;;;;;;;22.77;21.27;;;8.10;54.50;;;;;;5074778;28;20239;-72
2022/02/19 10:24:47;;;;;;;21.85;20.55;;;8.10;54.90;;;;;;5074693;28;20290;-72
2022/02/19 10:27:14;;;;;;;22.65;21.25;;;8.20;54.70;;;;;;5074059;28;20196;-72
2022/02/19 10:29:49;;;;;;;22.20;20.70;;;8.10;54.20;;;;;;5074478;28;20295;-72
2022/02/19 10:32:16;;;;;;;23.17;21.77;;;8.00;55.00;;;;;;5074255;28;20227;-72
2022/02/19 10:35:06;;;;;;;22.75;21.20;;;8.00;54.90;;;;;;5074591;28;20665;-72
2022/02/19 10:37:43;;;;;;;23.50;21.60;;;8.10;55.40;;;;;;5074675;28;20230;-72
2022/02/19 10:40:26;;;;;;;23.63;21.85;;;8.20;55.00;;;;;;5074618;28;20209;-72
2022/02/19 10:42:56;;;;;;;22.58;21.17;;;8.10;54.10;;;;;;5074567;28;20295;-72
2022/02/19 10:45:24;;;;;;;24.38;22.70;;;8.20;54.10;;;;;;5074292;28;20196;-72
2022/02/19 10:47:53;;;;;;;23.58;22.08;;;8.30;52.90;;;;;;5074353;28;20654;-72
2022/02/19 10:50:22;;;;;;;22.20;20.70;;;8.10;53.70;;;;;;5073969;28;20604;-72
2022/02/19 10:52:54;;;;;;;22.65;21.25;;;8.20;54.40;;;;;;5074098;28;20220;-72
2022/02/19 10:55:23;;;;;;;24.73;23.23;;;8.50;54.30;;;;;;5074118;28;20660;-72
2022/02/19 10:57:55;;;;;;;23.42;21.88;;;8.70;52.90;;;;;;5074235;28;20203;-72
2022/02/19 11:00:24;;;;;;;23.45;22.15;;;8.90;53.00;;;;;;5074022;28;20203;-72
2022/02/19 11:02:52;;;;;;;22.30;21.00;;;9.00;51.40;;;;;;5074046;28;20203;-72
2022/02/19 11:05:22;;;;;;;22.83;21.33;;;8.70;51.20;;;;;;5073979;28;20276;-72
2022/02/19 11:07:50;;;;;;;22.65;21.23;;;8.60;52.30;;;;;;5074281;28;20231;-72
2022/02/19 11:10:19;;;;;;;22.98;21.60;;;8.80;52.10;;;;;;5073627;28;20200;-72
2022/02/19 11:12:47;;;;;;;23.90;22.40;;;9.00;51.30;;;;;;5073823;28;20231;-72
2022/02/19 11:15:18;;;;;;;23.38;21.70;;;9.20;50.60;;;;;;5073887;28;20287;-72
2022/02/19 11:17:46;;;;;;;22.40;20.95;;;9.30;50.00;;;;;;5073611;28;20726;-72
2022/02/19 11:20:13;;;;;;;21.30;20.30;;;9.20;49.40;;;;;;5073514;28;20252;-72
2022/02/19 11:22:43;;;;;;;21.60;20.30;;;9.00;49.90;;;;;;5073222;28;20199;-72
2022/02/19 11:25:12;;;;;;;23.30;21.80;;;9.10;50.40;;;;;;5073748;28;20195;-72
2022/02/19 11:27:48;;;;;;;22.90;21.40;;;9.20;49.80;;;;;;5073097;28;20684;-72
2022/02/19 11:30:15;;;;;;;22.35;20.75;;;8.90;50.40;;;;;;5073328;28;20297;-72
2022/02/19 11:32:46;;;;;;;22.30;20.80;;;9.00;51.00;;;;;;5073323;28;20638;-72
2022/02/19 11:35:12;;;;;;;23.80;22.45;;;9.00;50.80;;;;;;5073806;28;20202;-72
2022/02/19 11:37:42;;;;;;;22.75;21.00;;;9.20;50.40;;;;;;5073396;28;20602;-72
2022/02/19 11:40:12;;;;;;;21.77;20.30;;;9.50;49.40;;;;;;5073202;28;20202;-72
2022/02/19 11:42:42;;;;;;;23.17;21.65;;;9.80;47.90;;;;;;5073475;28;20296;-72
2022/02/19 11:45:26;;;;;;;22.20;20.80;;;9.90;47.20;;;;;;5073174;28;20734;-72
2022/02/19 11:47:55;;;;;;;23.35;21.55;;;9.70;46.40;;;;;;5071175;28;20200;-72
2022/02/19 11:50:25;;;;;;;22.40;21.10;;;9.70;47.00;;;;;;5073074;28;20200;-72
2022/02/19 11:53:27;;;;;;;22.70;21.20;;;9.90;47.20;;;;;;5073161;28;20692;-72
2022/02/19 11:55:54;;;;;;;21.38;20.27;;;10.10;47.10;;;;;;5073220;28;20211;-73
2022/02/19 11:58:24;;;;;;;22.42;21.10;;;9.90;47.70;;;;;;5073087;28;20492;-72
2022/02/19 12:00:54;;;;;;;23.70;22.23;;;10.20;47.60;;;;;;5072832;28;20716;-72
2022/02/19 12:03:31;;;;;;;22.70;20.87;;;10.30;47.00;;;;;;5073438;28;20796;-73
2022/02/19 12:06:18;;;;;;;21.60;20.20;;;10.40;47.10;;;;;;5073554;28;20508;-72
2022/02/19 12:09:08;;;;;;;23.53;22.30;;;10.60;47.70;;;;;;5073758;28;20455;-72
2022/02/19 12:12:05;;;;;;;23.03;21.33;;;10.60;47.10;;;;;;5073691;28;20471;-72
2022/02/19 12:14:53;;;;;;;22.00;20.80;;;10.70;46.10;;;;;;5073006;28;20580;-72
2022/02/19 12:17:22;;;;;;;24.23;22.93;;;10.60;45.20;;;;;;5073588;28;20488;-72
2022/02/19 12:20:00;;;;;;;22.33;20.83;;;10.60;46.70;;;;;;5072953;28;20447;-72
2022/02/19 12:22:50;;;;;;;21.37;20.20;;;10.70;46.50;;;;;;5072707;28;20909;-72
2022/02/19 12:25:19;;;;;;;22.73;21.43;;;10.90;46.20;;;;;;5072749;28;20447;-72
2022/02/19 12:28:15;;;;;;;20.93;19.80;;;11.00;45.70;;;;;;5072201;28;20821;-72
2022/02/19 12:30:44;;;;;;;21.93;20.50;;;10.80;45.30;;;;;;5072443;28;20473;-72
2022/02/19 12:33:11;;;;;;;21.50;20.30;;;10.90;45.80;;;;;;5072365;28;20479;-72
2022/02/19 12:35:43;;;;;;;22.10;20.53;;;11.00;44.80;;;;;;5071620;28;20525;-72
2022/02/19 12:38:13;;;;;;;23.47;22.27;;;10.90;44.90;;;;;;5072516;28;20516;-72
2022/02/19 12:40:42;;;;;;;21.53;20.03;;;10.80;45.40;;;;;;5072286;28;20517;-73
2022/02/19 12:43:14;;;;;;;21.93;20.53;;;10.80;45.70;;;;;;5072375;28;20923;-72
2022/02/19 12:45:42;;;;;;;21.87;20.57;;;10.60;46.00;;;;;;5072337;28;20820;-72
2022/02/19 12:48:09;;;;;;;22.33;21.03;;;10.50;46.00;;;;;;5072466;28;20526;-72
2022/02/19 12:50:36;;;;;;;22.17;20.77;;;10.50;46.30;;;;;;5072109;28;20561;-72